Time;durP1;ratioP1;P1;durP2;ratioP2;P2;SDS_P1;SDS_P2;PMS_P1;PMS_P2;Temp;Humidity;BMP_temperature;BMP_pressure;BME280_temperature;BME280_humidity;BME280_pressure;Samples;Min_cycle;Max_cycle;Signal;HPM_P1;HPM_P2
2023/06/23 00:01:17;;;;;;;8.63;7.18;;;;;;;15.60;100.00;101725.78;4988216;28;20029;-71
2023/06/23 00:03:45;;;;;;;14.05;7.43;;;;;;;15.60;100.00;101733.16;4988155;28;20149;-70
2023/06/23 00:06:11;;;;;;;12.23;7.82;;;;;;;15.57;100.00;101737.91;4994919;28;20042;-71
2023/06/23 00:08:39;;;;;;;10.13;6.85;;;;;;;15.52;100.00;101734.63;4987406;28;20038;-70
2023/06/23 00:11:07;;;;;;;10.02;6.72;;;;;;;15.52;100.00;101741.97;4985611;28;20328;-71
2023/06/23 00:13:34;;;;;;;10.63;7.03;;;;;;;15.50;100.00;101739.38;4985739;28;20080;-70
2023/06/23 00:16:04;;;;;;;13.45;7.47;;;;;;;15.47;100.00;101750.56;4987207;28;20038;-70
2023/06/23 00:18:37;;;;;;;11.30;7.65;;;;;;;15.46;100.00;101748.81;5020000;28;20038;-70
2023/06/23 00:21:11;;;;;;;15.02;8.40;;;;;;;15.44;100.00;101753.56;4991485;28;20067;-70
2023/06/23 00:23:37;;;;;;;14.52;8.38;;;;;;;15.42;100.00;101754.66;4991467;28;20115;-71
2023/06/23 00:26:07;;;;;;;15.95;8.55;;;;;;;15.41;100.00;101761.16;4991063;28;20046;-71
2023/06/23 00:28:33;;;;;;;11.02;7.80;;;;;;;15.40;100.00;101756.66;4990023;28;20045;-71
2023/06/23 00:30:58;;;;;;;15.60;8.70;;;;;;;15.35;100.00;101757.03;5006395;28;20050;-71
2023/06/23 00:33:24;;;;;;;13.82;9.38;;;;;;;15.36;100.00;101761.50;4991576;28;20481;-71
2023/06/23 00:35:49;;;;;;;12.60;8.35;;;;;;;15.34;100.00;101768.09;4991048;28;20077;-71
2023/06/23 00:38:15;;;;;;;15.65;8.88;;;;;;;15.33;100.00;101769.97;4991289;28;20055;-71
2023/06/23 00:40:42;;;;;;;16.20;9.35;;;;;;;15.30;100.00;101773.84;5021461;28;20038;-71
2023/06/23 00:43:07;;;;;;;14.00;9.60;;;;;;;15.28;100.00;101774.94;5005375;28;20548;-71
2023/06/23 00:45:33;;;;;;;18.40;10.10;;;;;;;15.25;100.00;101776.06;5000589;28;20465;-69
2023/06/23 00:48:01;;;;;;;19.58;10.32;;;;;;;15.25;100.00;101773.31;4996424;28;20073;-71
2023/06/23 00:50:26;;;;;;;17.05;10.82;;;;;;;15.23;100.00;101769.81;4991448;28;20388;-71
2023/06/23 00:52:53;;;;;;;16.65;10.30;;;;;;;15.23;100.00;101788.13;5005279;28;20451;-70
2023/06/23 00:55:23;;;;;;;17.95;10.32;;;;;;;15.23;100.00;101785.38;5005338;28;20038;-71
2023/06/23 00:57:50;;;;;;;18.40;10.60;;;;;;;15.22;100.00;101795.47;4995395;28;20502;-70
2023/06/23 01:00:20;;;;;;;15.50;10.25;;;;;;;15.19;100.00;101803.94;4990495;28;20390;-70
2023/06/23 01:02:53;;;;;;;20.45;11.02;;;;;;;15.19;100.00;101822.25;4991003;28;20165;-70
2023/06/23 01:05:21;;;;;;;17.70;10.75;;;;;;;15.19;100.00;101825.84;4990583;28;20129;-71
2023/06/23 01:08:25;;;;;;;20.75;11.80;;;;;;;15.19;100.00;101828.59;4990530;28;20054;-70
2023/06/23 01:11:03;;;;;;;17.83;11.93;;;;;;;15.19;100.00;101830.47;4988569;28;20034;-71
2023/06/23 01:13:40;;;;;;;20.52;12.07;;;;;;;15.18;100.00;101828.72;5004926;28;20097;-70
2023/06/23 01:16:30;;;;;;;17.92;11.70;;;;;;;15.18;100.00;101836.94;4989010;28;20042;-71
2023/06/23 01:19:33;;;;;;;19.17;12.50;;;;;;;15.17;100.00;101826.97;5005686;28;20045;-70
2023/06/23 01:22:13;;;;;;;19.85;12.40;;;;;;;15.15;100.00;101828.94;5004190;28;20042;-70
2023/06/23 01:24:53;;;;;;;18.40;12.98;;;;;;;15.13;100.00;101828.22;5005193;28;20034;-71
2023/06/23 01:27:28;;;;;;;18.75;12.10;;;;;;;15.12;100.00;101827.34;5004541;28;20045;-71
2023/06/23 01:29:58;;;;;;;22.67;14.18;;;;;;;15.09;100.00;101823.94;4987256;28;20043;-71
2023/06/23 01:32:26;;;;;;;22.05;14.13;;;;;;;15.07;100.00;101835.03;4990543;28;20062;-70
2023/06/23 01:35:03;;;;;;;23.13;14.45;;;;;;;15.07;100.00;101842.38;5005296;28;20022;-70
2023/06/23 01:37:32;;;;;;;23.67;13.85;;;;;;;15.07;100.00;101850.59;4990346;28;20314;-70
2023/06/23 01:40:04;;;;;;;27.48;14.82;;;;;;;15.07;100.00;101848.75;4989868;28;20070;-70
2023/06/23 01:42:33;;;;;;;23.98;15.52;;;;;;;15.05;100.00;101848.84;5003667;28;20092;-69
2023/06/23 01:45:02;;;;;;;26.42;15.30;;;;;;;15.03;100.00;101845.34;5004932;28;20205;-70
2023/06/23 01:47:33;;;;;;;27.85;15.50;;;;;;;15.01;100.00;101841.88;4990580;28;20059;-70
2023/06/23 01:50:05;;;;;;;26.52;17.65;;;;;;;14.98;100.00;101850.31;4989960;28;20042;-71
2023/06/23 01:52:33;;;;;;;29.33;16.90;;;;;;;14.96;100.00;101846.78;5005558;28;20041;-71
2023/06/23 01:55:02;;;;;;;28.92;16.52;;;;;;;14.96;100.00;101852.25;4997441;28;20167;-70
2023/06/23 01:57:31;;;;;;;28.92;16.30;;;;;;;14.94;100.00;101859.75;5003327;28;20458;-70
2023/06/23 01:59:58;;;;;;;27.20;16.33;;;;;;;14.90;100.00;101862.81;5004579;28;20474;-70
2023/06/23 02:02:26;;;;;;;25.52;15.10;;;;;;;14.85;100.00;101856.81;5014023;28;20033;-70
2023/06/23 02:04:55;;;;;;;21.80;15.32;;;;;;;14.85;100.00;101863.16;5007669;28;20037;-70
2023/06/23 02:07:22;;;;;;;23.63;15.68;;;;;;;14.84;100.00;101861.41;5007354;28;20084;-70
2023/06/23 02:09:49;;;;;;;26.70;16.40;;;;;;;14.85;100.00;101865.03;5002320;28;20466;-70
2023/06/23 02:12:16;;;;;;;24.02;15.80;;;;;;;14.85;100.00;101878.72;5003262;28;20379;-70
2023/06/23 02:14:43;;;;;;;27.98;16.83;;;;;;;14.84;100.00;101875.13;4989305;28;20490;-70
2023/06/23 02:17:10;;;;;;;29.25;17.85;;;;;;;14.83;100.00;101876.13;4987937;28;20045;-70
2023/06/23 02:19:42;;;;;;;27.33;17.13;;;;;;;14.84;100.00;101885.19;4989251;28;20462;-70
2023/06/23 02:22:15;;;;;;;27.25;16.63;;;;;;;14.83;100.00;101892.56;4988890;28;20037;-70
2023/06/23 02:24:44;;;;;;;23.33;17.35;;;;;;;14.82;100.00;101890.78;5004898;28;20030;-70
2023/06/23 02:27:10;;;;;;;28.02;17.77;;;;;;;14.80;100.00;101900.97;5003600;28;20100;-70
2023/06/23 02:29:38;;;;;;;30.92;17.95;;;;;;;14.78;100.00;101901.09;5003197;28;20038;-70
2023/06/23 02:32:04;;;;;;;27.02;18.48;;;;;;;14.79;100.00;101901.97;4987409;28;20042;-70
2023/06/23 02:34:30;;;;;;;31.63;18.48;;;;;;;14.76;100.00;101904.94;4988995;28;20117;-70
2023/06/23 02:37:02;;;;;;;31.98;19.10;;;;;;;14.74;100.00;101907.78;5003582;28;20153;-70
2023/06/23 02:39:42;;;;;;;29.27;20.23;;;;;;;14.70;100.00;101922.69;5003631;28;20378;-70
2023/06/23 02:42:12;;;;;;;24.77;17.20;;;;;;;14.68;100.00;101930.13;5002972;28;20072;-71
2023/06/23 02:44:42;;;;;;;29.65;18.38;;;;;;;14.66;100.00;101929.38;4988622;28;20506;-70
2023/06/23 02:47:13;;;;;;;24.23;18.23;;;;;;;14.67;100.00;101938.47;4987453;28;20037;-70
2023/06/23 02:49:41;;;;;;;31.25;19.00;;;;;;;14.64;100.00;101936.84;4989412;28;20344;-70
2023/06/23 02:52:09;;;;;;;31.23;19.50;;;;;;;14.63;100.00;101931.47;4989024;28;20354;-70
2023/06/23 02:54:41;;;;;;;30.42;19.05;;;;;;;14.62;100.00;101936.06;5003510;28;20041;-70
2023/06/23 02:57:13;;;;;;;31.60;19.65;;;;;;;14.59;100.00;101933.53;5002864;28;20045;-70
2023/06/23 02:59:42;;;;;;;31.52;20.27;;;;;;;14.62;100.00;101937.94;4986616;28;20034;-71
2023/06/23 03:02:11;;;;;;;31.63;20.77;;;;;;;14.61;100.00;101947.13;5004430;28;20097;-71
2023/06/23 03:04:38;;;;;;;32.38;19.90;;;;;;;14.59;100.00;101943.63;4986849;28;20113;-70
2023/06/23 03:07:05;;;;;;;30.60;19.80;;;;;;;14.58;100.00;101953.69;4998941;28;20042;-71
2023/06/23 03:09:31;;;;;;;31.60;19.58;;;;;;;14.58;100.00;101942.75;5006316;28;20044;-69
2023/06/23 03:11:57;;;;;;;30.38;19.95;;;;;;;14.56;100.00;101946.59;4989023;28;20046;-70
2023/06/23 03:14:23;;;;;;;31.98;20.10;;;;;;;14.55;100.00;101945.72;4987832;28;20044;-70
2023/06/23 03:16:55;;;;;;;35.67;21.77;;;;;;;14.52;100.00;101941.34;5003726;28;20394;-70
2023/06/23 03:19:39;;;;;;;34.20;21.98;;;;;;;14.53;100.00;101940.34;5003142;28;20134;-70
2023/06/23 03:22:14;;;;;;;35.47;22.73;;;;;;;14.50;100.00;101940.56;4988078;28;20376;-70
2023/06/23 03:24:44;;;;;;;35.15;21.98;;;;;;;14.51;100.00;101946.94;4995846;28;20398;-70
2023/06/23 03:27:13;;;;;;;38.28;23.17;;;;;;;14.52;100.00;101955.03;5001048;28;20125;-71
2023/06/23 03:29:48;;;;;;;33.55;22.00;;;;;;;14.52;100.00;101967.84;4986489;28;20634;-70
2023/06/23 03:32:22;;;;;;;40.15;24.58;;;;;;;14.53;100.00;101967.72;5002629;28;20038;-69
2023/06/23 03:35:02;;;;;;;37.92;22.92;;;;;;;14.53;100.00;101961.38;4998593;28;20421;-70
2023/06/23 03:37:31;;;;;;;37.25;24.02;;;;;;;14.52;100.00;101955.03;5002333;28;20717;-70
2023/06/23 03:40:00;;;;;;;37.85;24.15;;;;;;;14.53;100.00;101964.09;5006583;28;20038;-70
2023/06/23 03:42:27;;;;;;;39.13;24.30;;;;;;;14.50;100.00;101962.47;5003598;28;20042;-70
2023/06/23 03:44:55;;;;;;;36.75;23.60;;;;;;;14.53;100.00;101969.59;5006079;28;20160;-70
2023/06/23 03:47:25;;;;;;;42.85;24.25;;;;;;;14.53;100.00;101961.38;5002578;28;20018;-70
2023/06/23 03:49:55;;;;;;;39.88;24.08;;;;;;;14.53;100.00;101954.03;5007090;28;20044;-70
2023/06/23 03:52:23;;;;;;;39.22;25.20;;;;;;;14.54;100.00;101954.91;5003330;28;20034;-70
2023/06/23 03:54:52;;;;;;;38.63;23.95;;;;;;;14.54;100.00;101957.63;5006384;28;20026;-70
2023/06/23 03:57:22;;;;;;;40.33;24.70;;;;;;;14.56;100.00;101954.81;5003421;28;20140;-70
2023/06/23 03:59:50;;;;;;;47.58;24.75;;;;;;;14.58;100.00;101963.78;5005203;28;20366;-71
2023/06/23 04:02:17;;;;;;;40.42;23.55;;;;;;;14.58;100.00;101969.25;5005874;28;20354;-70
2023/06/23 04:04:45;;;;;;;39.65;24.20;;;;;;;14.60;100.00;101986.47;5005238;28;20033;-70
2023/06/23 04:07:12;;;;;;;37.88;23.38;;;;;;;14.62;100.00;101984.50;5006652;28;20038;-70
2023/06/23 04:09:40;;;;;;;43.17;25.65;;;;;;;14.66;100.00;101983.28;5004844;28;20502;-70
2023/06/23 04:12:10;;;;;;;40.33;24.98;;;;;;;14.66;100.00;101980.56;5018269;28;20030;-70
2023/06/23 04:14:38;;;;;;;41.30;24.13;;;;;;;14.69;100.00;101983.09;5005686;28;20094;-70
2023/06/23 04:17:06;;;;;;;36.28;22.98;;;;;;;14.71;100.00;101984.72;5003573;28;20364;-70
2023/06/23 04:19:33;;;;;;;39.25;23.63;;;;;;;14.75;100.00;101993.59;5006379;28;20850;-71
2023/06/23 04:22:00;;;;;;;44.33;24.85;;;;;;;14.77;100.00;101991.59;5005865;28;20042;-71
2023/06/23 04:24:27;;;;;;;43.42;24.08;;;;;;;14.80;100.00;101994.13;4996928;28;20069;-70
2023/06/23 04:26:56;;;;;;;42.03;23.58;;;;;;;14.84;100.00;101995.66;4987456;28;20545;-70
2023/06/23 04:29:24;;;;;;;40.13;24.40;;;;;;;14.86;100.00;102001.91;5006483;28;20406;-70
2023/06/23 04:31:52;;;;;;;42.50;24.63;;;;;;;14.91;100.00;102001.56;5000972;28;20049;-70
2023/06/23 04:34:18;;;;;;;39.85;24.35;;;;;;;14.95;100.00;102008.59;4987334;28;20027;-70
2023/06/23 04:36:51;;;;;;;42.42;24.80;;;;;;;14.98;100.00;102008.38;4987099;28;20069;-71
2023/06/23 04:39:27;;;;;;;42.35;25.95;;;;;;;15.02;100.00;102016.25;4987521;28;20049;-70
2023/06/23 04:41:58;;;;;;;49.92;26.60;;;;;;;15.05;100.00;102021.50;4987314;28;20116;-71
2023/06/23 04:44:27;;;;;;;48.05;24.27;;;;;;;15.11;100.00;102013.81;5001732;28;20042;-70
2023/06/23 04:46:57;;;;;;;43.40;25.10;;;;;;;15.16;100.00;102018.00;4985271;28;20035;-70
2023/06/23 04:49:27;;;;;;;40.75;25.15;;;;;;;15.21;100.00;102018.53;4987296;28;20057;-70
2023/06/23 04:51:54;;;;;;;48.65;27.67;;;;;;;15.28;100.00;102018.94;4987160;28;20046;-70
2023/06/23 04:54:27;;;;;;;44.65;25.65;;;;;;;15.33;100.00;102019.47;4985614;28;20513;-70
2023/06/23 04:57:01;;;;;;;47.05;26.10;;;;;;;15.37;100.00;102020.13;4986742;28;20508;-70
2023/06/23 04:59:30;;;;;;;46.53;27.15;;;;;;;15.41;100.00;102025.28;5000648;28;20046;-70
2023/06/23 05:01:57;;;;;;;49.90;27.17;;;;;;;15.50;100.00;102029.22;4987154;28;20053;-70
2023/06/23 05:04:23;;;;;;;43.30;27.67;;;;;;;15.53;100.00;102032.63;4988392;28;20050;-70
2023/06/23 05:06:50;;;;;;;45.28;26.75;;;;;;;15.60;100.00;102040.38;4990224;28;20034;-70
2023/06/23 05:09:17;;;;;;;46.50;25.67;;;;;;;15.68;100.00;102051.69;4990532;28;20042;-70
2023/06/23 05:11:45;;;;;;;46.65;27.48;;;;;;;15.78;100.00;102052.75;4989849;28;20034;-70
2023/06/23 05:14:12;;;;;;;46.25;26.38;;;;;;;15.88;100.00;102062.03;4989178;28;20505;-69
2023/06/23 05:16:41;;;;;;;41.70;25.10;;;;;;;15.95;100.00;102055.09;4991057;28;20074;-70
2023/06/23 05:19:10;;;;;;;41.47;25.65;;;;;;;16.06;100.00;102057.91;4990307;28;20038;-70
2023/06/23 05:21:37;;;;;;;52.80;26.70;;;;;;;16.16;100.00;102057.19;4989044;28;20469;-69
2023/06/23 05:24:06;;;;;;;44.60;24.95;;;;;;;16.27;100.00;102054.50;4990122;28;20039;-70
2023/06/23 05:26:34;;;;;;;52.28;27.73;;;;;;;16.35;100.00;102057.53;4989663;28;20541;-69
2023/06/23 05:29:03;;;;;;;50.25;27.23;;;;;;;16.38;100.00;102064.66;5008654;28;20049;-71
2023/06/23 05:31:31;;;;;;;47.92;26.58;;;;;;;16.44;100.00;102062.31;5006643;28;20133;-70
2023/06/23 05:33:59;;;;;;;45.92;25.70;;;;;;;16.48;100.00;102066.56;4988522;28;20057;-70
2023/06/23 05:36:26;;;;;;;47.22;26.77;;;;;;;16.53;100.00;102068.97;5000852;28;20046;-70
2023/06/23 05:38:54;;;;;;;47.50;27.48;;;;;;;16.59;100.00;102063.84;5004094;28;20034;-71
2023/06/23 05:41:20;;;;;;;46.13;27.00;;;;;;;16.72;100.00;102069.28;4993691;28;20536;-70
2023/06/23 05:43:45;;;;;;;42.50;25.85;;;;;;;16.80;100.00;102066.81;5004671;28;20092;-70
2023/06/23 05:46:14;;;;;;;48.33;27.67;;;;;;;16.92;100.00;102070.44;5009392;28;20056;-70
2023/06/23 05:48:44;;;;;;;44.60;26.33;;;;;;;17.03;100.00;102075.13;5008925;28;20563;-70
2023/06/23 05:51:13;;;;;;;44.58;27.15;;;;;;;17.11;100.00;102074.47;5009726;28;20045;-70
2023/06/23 05:53:40;;;;;;;48.65;28.75;;;;;;;17.20;100.00;102082.84;5009185;28;20116;-70
2023/06/23 05:56:22;;;;;;;51.90;29.60;;;;;;;17.37;100.00;102084.25;5002640;28;20045;-71
2023/06/23 05:58:55;;;;;;;44.58;26.42;;;;;;;17.62;100.00;102085.00;5007398;28;20397;-70
2023/06/23 06:01:24;;;;;;;51.47;28.10;;;;;;;17.74;100.00;102082.13;5006020;28;20088;-70
2023/06/23 06:04:01;;;;;;;49.20;28.65;;;;;;;17.85;100.00;102092.25;4999924;28;20050;-70
2023/06/23 06:06:28;;;;;;;50.28;28.63;;;;;;;17.96;100.00;102092.25;4992861;28;20046;-71
2023/06/23 06:08:57;;;;;;;48.50;28.00;;;;;;;18.16;100.00;102101.56;4991756;28;20034;-71
2023/06/23 06:11:25;;;;;;;49.05;28.60;;;;;;;18.34;100.00;102100.00;5004887;28;20022;-71
2023/06/23 06:13:51;;;;;;;49.08;28.70;;;;;;;18.39;100.00;102104.25;5005886;28;20038;-70
2023/06/23 06:16:18;;;;;;;48.53;29.45;;;;;;;18.38;100.00;102110.78;5007027;28;20046;-70
2023/06/23 06:18:45;;;;;;;50.35;28.83;;;;;;;18.32;100.00;102106.63;5007986;28;20026;-70
2023/06/23 06:21:13;;;;;;;47.05;29.25;;;;;;;18.35;100.00;102118.28;5004617;28;20042;-70
2023/06/23 06:23:41;;;;;;;46.83;29.17;;;;;;;18.33;100.00;102106.53;4989604;28;20557;-70
2023/06/23 06:26:09;;;;;;;44.25;28.27;;;;;;;18.39;100.00;102115.28;4988750;28;20026;-70
2023/06/23 06:28:36;;;;;;;46.35;29.67;;;;;;;18.48;100.00;102111.75;5002869;28;20074;-71
2023/06/23 06:31:03;;;;;;;46.17;28.67;;;;;;;18.45;98.94;102106.47;5003609;28;20035;-70
2023/06/23 06:33:30;;;;;;;45.47;26.48;;;;;;;18.57;100.00;102105.44;5004443;28;20074;-70
2023/06/23 06:35:58;;;;;;;42.42;27.40;;;;;;;18.65;98.62;102113.88;4988533;28;20096;-71
2023/06/23 06:38:25;;;;;;;51.78;30.65;;;;;;;18.54;98.94;102120.34;4998042;28;20038;-70
2023/06/23 06:40:54;;;;;;;48.78;29.25;;;;;;;18.46;98.38;102124.75;4995729;28;20030;-71
2023/06/23 06:43:19;;;;;;;46.20;29.05;;;;;;;18.39;99.29;102121.66;4993352;28;20050;-71
2023/06/23 06:45:50;;;;;;;45.08;28.50;;;;;;;18.32;98.65;102136.94;5003217;28;20034;-70
2023/06/23 06:48:16;;;;;;;48.45;28.80;;;;;;;18.31;100.00;102127.81;5002816;28;20038;-70
2023/06/23 06:50:43;;;;;;;45.92;27.52;;;;;;;18.34;100.00;102135.81;4995353;28;20393;-70
2023/06/23 06:53:09;;;;;;;47.05;28.15;;;;;;;18.37;99.32;102140.19;4996968;28;20057;-70
2023/06/23 06:55:35;;;;;;;45.80;27.48;;;;;;;18.43;99.93;102139.69;5005643;28;20022;-70
2023/06/23 06:58:01;;;;;;;46.13;27.40;;;;;;;18.52;100.00;102146.31;4986853;28;20089;-70
2023/06/23 07:00:27;;;;;;;43.05;26.52;;;;;;;18.51;99.55;102144.53;4988046;28;20092;-70
2023/06/23 07:02:55;;;;;;;39.72;25.85;;;;;;;18.50;97.69;102148.28;4988229;28;20381;-70
2023/06/23 07:05:20;;;;;;;39.00;24.80;;;;;;;18.47;97.10;102146.69;4988409;28;20383;-70
2023/06/23 07:07:46;;;;;;;41.80;25.55;;;;;;;18.51;97.57;102141.78;4987525;28;20045;-70
2023/06/23 07:10:11;;;;;;;36.65;23.75;;;;;;;18.51;95.63;102142.66;4988710;28;20081;-70
2023/06/23 07:12:37;;;;;;;41.83;25.58;;;;;;;18.58;98.23;102146.63;4986444;28;20031;-70
2023/06/23 07:15:02;;;;;;;37.10;24.48;;;;;;;18.55;96.11;102149.66;5003019;28;20534;-70
2023/06/23 07:17:28;;;;;;;41.13;23.10;;;;;;;18.55;95.59;102170.81;4988333;28;20494;-70
2023/06/23 07:19:53;;;;;;;37.30;24.40;;;;;;;18.61;97.16;102167.56;4988084;28;20038;-71
2023/06/23 07:22:19;;;;;;;34.15;22.23;;;;;;;18.63;95.20;102164.66;4987851;28;20124;-70
2023/06/23 07:24:44;;;;;;;37.20;23.50;;;;;;;18.61;95.44;102168.44;4987470;28;20095;-70
2023/06/23 07:27:09;;;;;;;35.97;23.92;;;;;;;18.67;93.92;102182.69;4987085;28;20042;-70
2023/06/23 07:29:35;;;;;;;37.00;23.13;;;;;;;18.73;96.91;102176.69;4986752;28;20038;-70
2023/06/23 07:32:01;;;;;;;34.88;23.02;;;;;;;18.82;95.62;102176.75;4994753;28;20045;-71
2023/06/23 07:34:28;;;;;;;36.33;23.38;;;;;;;18.87;96.29;102173.59;4991772;28;20310;-70
2023/06/23 07:36:54;;;;;;;35.70;22.80;;;;;;;18.89;93.27;102167.97;4987639;28;20057;-71
2023/06/23 07:39:19;;;;;;;38.40;23.42;;;;;;;18.92;92.83;102179.59;5002593;28;20038;-70
2023/06/23 07:41:44;;;;;;;34.88;22.35;;;;;;;18.94;93.07;102177.59;4986955;28;20107;-70
2023/06/23 07:44:10;;;;;;;38.95;23.33;;;;;;;19.01;95.72;102178.81;4987792;28;20367;-70
2023/06/23 07:46:35;;;;;;;37.65;23.80;;;;;;;19.05;95.04;102194.09;4986066;28;21458;-70
2023/06/23 07:49:00;;;;;;;38.38;23.08;;;;;;;19.11;95.88;102187.16;4987599;28;20042;-71
2023/06/23 07:51:26;;;;;;;34.55;22.98;;;;;;;19.28;95.85;102180.16;4987588;28;20176;-70
2023/06/23 07:53:52;;;;;;;30.27;19.30;;;;;;;19.37;92.75;102185.75;4987260;28;20041;-71
2023/06/23 07:56:18;;;;;;;28.33;18.50;;;;;;;19.53;94.81;102182.47;4986506;28;20042;-70
2023/06/23 07:58:43;;;;;;;26.42;16.30;;;;;;;19.54;90.63;102177.88;4999130;28;20155;-71
2023/06/23 08:01:09;;;;;;;25.95;18.15;;;;;;;19.55;91.84;102187.88;5007321;28;20113;-71
2023/06/23 08:03:34;;;;;;;28.77;18.45;;;;;;;19.59;89.71;102183.84;4988720;28;20050;-71
2023/06/23 08:06:00;;;;;;;28.40;18.30;;;;;;;19.65;89.91;102188.84;5004248;28;20045;-71
2023/06/23 08:08:25;;;;;;;30.60;19.50;;;;;;;19.86;94.43;102186.00;5005459;28;20037;-70
2023/06/23 08:10:51;;;;;;;29.63;18.58;;;;;;;20.02;90.67;102185.50;4992683;28;20466;-70
2023/06/23 08:13:18;;;;;;;34.30;19.23;;;;;;;20.24;88.33;102190.81;4990979;28;20037;-70
2023/06/23 08:15:43;;;;;;;29.45;18.13;;;;;;;20.75;88.19;102191.66;4985521;28;20489;-70
2023/06/23 08:18:08;;;;;;;29.88;18.58;;;;;;;21.00;85.97;102193.84;4988102;28;20037;-70
2023/06/23 08:20:34;;;;;;;29.67;17.38;;;;;;;21.63;83.97;102182.25;4987182;28;20504;-71
2023/06/23 08:22:59;;;;;;;25.40;17.05;;;;;;;21.99;81.52;102190.72;4986957;28;20039;-70
2023/06/23 08:25:25;;;;;;;23.80;17.35;;;;;;;22.31;77.72;102187.50;4987134;28;20050;-71
2023/06/23 08:27:50;;;;;;;22.98;15.50;;;;;;;22.74;76.28;102188.66;5000380;28;20026;-71
2023/06/23 08:30:30;;;;;;;22.27;16.42;;;;;;;23.01;77.29;102194.16;4986914;28;20069;-71
2023/06/23 08:32:56;;;;;;;20.80;15.20;;;;;;;23.49;72.13;102194.72;4988056;28;20066;-71
2023/06/23 08:35:21;;;;;;;22.77;16.48;;;;;;;23.95;79.23;102198.16;4987211;28;20129;-71
2023/06/23 08:37:47;;;;;;;19.52;14.52;;;;;;;24.34;73.90;102201.28;4986786;28;20050;-71
2023/06/23 08:40:14;;;;;;;17.80;13.35;;;;;;;24.72;71.80;102204.56;4990430;28;20114;-70
2023/06/23 08:42:39;;;;;;;15.82;11.13;;;;;;;24.89;69.22;102207.19;4991067;28;20040;-71
2023/06/23 08:45:07;;;;;;;16.23;11.93;;;;;;;24.81;62.75;102206.34;5010118;28;20042;-71
2023/06/23 08:47:35;;;;;;;17.45;12.15;;;;;;;24.82;68.98;102210.84;5001466;28;20358;-71
2023/06/23 08:50:01;;;;;;;14.80;11.75;;;;;;;25.10;69.60;102203.06;5008397;28;20493;-71
2023/06/23 08:52:26;;;;;;;19.75;12.80;;;;;;;25.35;68.76;102215.94;4990982;28;20111;-71
2023/06/23 08:54:52;;;;;;;18.80;12.93;;;;;;;25.62;67.30;102217.50;4990738;28;20042;-71
2023/06/23 08:57:17;;;;;;;18.95;12.73;;;;;;;25.93;65.34;102212.06;4987674;28;20058;-71
2023/06/23 08:59:43;;;;;;;15.95;11.80;;;;;;;26.14;63.53;102224.53;5003500;28;20029;-71
2023/06/23 09:02:09;;;;;;;15.07;10.80;;;;;;;26.16;58.02;102231.69;5004279;28;20120;-71
2023/06/23 09:04:34;;;;;;;13.93;9.88;;;;;;;26.16;63.71;102225.19;4990436;28;20018;-71
2023/06/23 09:07:00;;;;;;;15.77;10.93;;;;;;;26.02;63.57;102223.16;5000296;28;20478;-71
2023/06/23 09:09:26;;;;;;;17.25;10.82;;;;;;;26.19;63.12;102228.50;5007569;28;20033;-72
2023/06/23 09:11:52;;;;;;;16.48;11.98;;;;;;;25.94;56.56;102232.44;4989903;28;20474;-72
2023/06/23 09:14:17;;;;;;;18.33;12.27;;;;;;;25.84;66.08;102235.44;4989804;28;20038;-70
2023/06/23 09:16:44;;;;;;;16.50;11.70;;;;;;;26.06;64.67;102236.56;4990061;28;20374;-72
2023/06/23 09:19:10;;;;;;;16.95;11.60;;;;;;;26.13;60.24;102234.81;5005840;28;20470;-71
2023/06/23 09:21:36;;;;;;;17.17;11.15;;;;;;;26.33;58.73;102239.97;4990041;28;20034;-71
2023/06/23 09:24:07;;;;;;;12.88;9.85;;;;;;;26.44;59.54;102237.69;4990028;28;20042;-71
2023/06/23 09:26:50;;;;;;;22.38;8.35;;;;;;;26.51;60.79;102236.97;4989285;28;20049;-71
2023/06/23 09:29:20;;;;;;;13.60;8.90;;;;;;;26.29;53.56;102238.59;4989452;28;20158;-72
2023/06/23 09:31:51;;;;;;;14.35;8.60;;;;;;;26.25;58.48;102249.22;4991451;28;20439;-72
2023/06/23 09:34:30;;;;;;;11.02;7.65;;;;;;;26.69;62.52;102254.31;5009600;28;20077;-71
2023/06/23 09:37:08;;;;;;;10.70;6.47;;;;;;;27.07;61.14;102255.28;4995722;28;20054;-71
2023/06/23 09:39:38;;;;;;;12.82;9.18;;;;;;;27.03;54.48;102253.91;4988437;28;20045;-71
2023/06/23 09:42:06;;;;;;;9.35;7.30;;;;;;;27.26;60.58;102259.53;4989471;28;20046;-71
2023/06/23 09:44:33;;;;;;;12.50;9.38;;;;;;;27.17;57.86;102257.88;5004021;28;20354;-71
2023/06/23 09:47:00;;;;;;;14.32;9.27;;;;;;;27.36;61.87;102260.16;5004436;28;20042;-71
2023/06/23 09:49:26;;;;;;;15.38;9.00;;;;;;;27.54;58.46;102254.22;4989487;28;20049;-71
2023/06/23 09:51:51;;;;;;;12.30;8.30;;;;;;;27.85;57.85;102254.13;5003452;28;20483;-71
2023/06/23 09:54:33;;;;;;;11.52;7.97;;;;;;;28.03;58.16;102267.78;4989207;28;20529;-71
2023/06/23 09:57:07;;;;;;;10.40;7.82;;;;;;;27.51;50.86;102256.53;4989484;28;20146;-71
2023/06/23 09:59:33;;;;;;;10.75;6.60;;;;;;;27.25;51.39;102256.94;4989491;28;20577;-71
2023/06/23 10:02:00;;;;;;;8.38;6.60;;;;;;;27.18;53.86;102267.97;4989667;28;20138;-71
2023/06/23 10:04:31;;;;;;;9.88;7.60;;;;;;;27.57;57.01;102258.59;4989588;28;20070;-71
2023/06/23 10:06:57;;;;;;;9.20;6.32;;;;;;;28.02;56.34;102251.16;4989169;28;20052;-71
2023/06/23 10:09:24;;;;;;;6.80;5.82;;;;;;;28.09;55.08;102244.59;4989202;28;20478;-71
2023/06/23 10:11:51;;;;;;;8.00;6.35;;;;;;;28.18;52.93;102253.78;4988540;28;20034;-72
2023/06/23 10:14:16;;;;;;;10.52;6.85;;;;;;;28.30;53.21;102254.13;4988690;28;20037;-71
2023/06/23 10:16:45;;;;;;;10.32;6.97;;;;;;;28.48;51.03;102251.84;4989825;28;20121;-71
2023/06/23 10:19:15;;;;;;;10.18;6.57;;;;;;;28.29;49.45;102249.59;4989712;28;20035;-71
2023/06/23 10:21:41;;;;;;;9.68;6.65;;;;;;;27.94;47.61;102252.13;4989535;28;20046;-71
2023/06/23 10:24:13;;;;;;;12.05;6.65;;;;;;;27.90;52.56;102251.63;4989077;28;20072;-71
2023/06/23 10:26:39;;;;;;;10.15;5.80;;;;;;;28.09;54.91;102257.72;4989217;28;20042;-71
2023/06/23 10:29:08;;;;;;;8.48;5.82;;;;;;;28.27;49.23;102257.34;5003381;28;20463;-71
2023/06/23 10:31:35;;;;;;;8.73;5.93;;;;;;;28.77;54.04;102258.44;4988782;28;20068;-71
2023/06/23 10:34:05;;;;;;;9.85;6.53;;;;;;;28.92;48.20;102240.53;4994908;28;20052;-71
2023/06/23 10:36:31;;;;;;;9.65;6.63;;;;;;;29.06;48.64;102252.81;4999972;28;20938;-72
2023/06/23 10:39:01;;;;;;;6.45;4.88;;;;;;;29.11;50.35;102260.59;5007397;28;20073;-71
2023/06/23 10:41:27;;;;;;;11.02;6.15;;;;;;;28.88;44.56;102269.16;5006140;28;20125;-71
2023/06/23 10:43:56;;;;;;;8.80;5.45;;;;;;;28.66;48.84;102262.63;5001723;28;20034;-72
2023/06/23 10:46:23;;;;;;;8.30;5.07;;;;;;;28.72;51.02;102273.03;4999657;28;20046;-71
2023/06/23 10:48:49;;;;;;;7.53;5.22;;;;;;;28.29;47.77;102272.88;5002528;28;20033;-72
2023/06/23 10:51:15;;;;;;;7.35;5.13;;;;;;;28.36;51.27;102271.09;5005382;28;20037;-72
2023/06/23 10:53:57;;;;;;;9.13;5.50;;;;;;;28.68;47.76;102268.91;5007024;28;20049;-71
2023/06/23 10:56:53;;;;;;;8.13;5.38;;;;;;;28.43;50.80;102263.63;5001220;28;20023;-72
2023/06/23 10:59:26;;;;;;;8.30;4.75;;;;;;;28.09;45.43;102268.94;4993447;28;20480;-72
2023/06/23 11:02:01;;;;;;;7.22;5.35;;;;;;;27.53;46.99;102276.78;5010184;28;20069;-72
2023/06/23 11:04:27;;;;;;;6.85;4.65;;;;;;;27.54;50.07;102281.31;5006305;28;20390;-72
2023/06/23 11:07:05;;;;;;;6.80;4.30;;;;;;;28.09;51.63;102275.38;4993359;28;20076;-72
2023/06/23 11:10:02;;;;;;;8.05;5.07;;;;;;;28.78;54.07;102283.47;5003399;28;20040;-71
2023/06/23 11:12:36;;;;;;;4.22;3.70;;;;;;;28.64;47.16;102279.66;4995444;28;20470;-72
2023/06/23 11:15:03;;;;;;;11.15;4.43;;;;;;;28.93;50.46;102284.31;5005232;28;20060;-71